Time;durP1;ratioP1;P1;durP2;ratioP2;P2;SDS_P1;SDS_P2;PMS_P1;PMS_P2;Temp;Humidity;BMP_temperature;BMP_pressure;BME280_temperature;BME280_humidity;BME280_pressure;Samples;Min_cycle;Max_cycle;Signal;HPM_P1;HPM_P2
2023/11/05 00:01:53;;;;;;;9.30;3.60;;;;;;;15.90;100.00;97902.97;88202;285;138254;-72
2023/11/05 00:03:55;;;;;;;9.30;3.70;;;;;;;15.86;100.00;97904.06;88250;285;25205;-71
2023/11/05 00:05:58;;;;;;;7.70;3.80;;;;;;;15.83;100.00;97898.73;88290;285;136608;-90
2023/11/05 00:08:00;;;;;;;9.10;4.10;;;;;;;15.79;100.00;97896.72;88421;285;25213;-67
2023/11/05 00:10:04;;;;;;;11.50;4.80;;;;;;;15.73;100.00;97889.73;88181;285;137520;-73
2023/11/05 00:12:07;;;;;;;8.90;3.80;;;;;;;15.70;100.00;97896.66;88239;285;137072;-70
2023/11/05 00:14:09;;;;;;;13.20;5.20;;;;;;;15.68;100.00;97887.65;88303;277;22546;-71
2023/11/05 00:16:10;;;;;;;7.30;3.60;;;;;;;15.69;100.00;97895.27;88116;285;136997;-72
2023/11/05 00:18:12;;;;;;;11.50;3.80;;;;;;;15.68;100.00;97900.11;88346;277;25087;-71
2023/11/05 00:20:15;;;;;;;7.80;4.10;;;;;;;15.66;100.00;97891.16;88378;285;137320;-72
2023/11/05 00:22:18;;;;;;;11.80;5.50;;;;;;;15.63;100.00;97887.41;88554;282;25233;-78
2023/11/05 00:24:20;;;;;;;10.10;4.20;;;;;;;15.61;100.00;97876.81;88300;282;136898;-70
2023/11/05 00:26:22;;;;;;;11.60;4.90;;;;;;;15.59;100.00;97869.41;88420;285;25079;-74
2023/11/05 00:28:24;;;;;;;16.10;6.10;;;;;;;15.56;100.00;97863.64;88305;285;138089;-81
2023/11/05 00:30:27;;;;;;;10.90;5.00;;;;;;;15.53;100.00;97856.52;88670;286;23382;-87
2023/11/05 00:32:29;;;;;;;14.90;5.70;;;;;;;15.47;100.00;97849.01;88640;278;137868;-90
2023/11/05 00:34:31;;;;;;;22.80;8.10;;;;;;;15.43;100.00;97847.06;88554;285;22532;-76
2023/11/05 00:36:33;;;;;;;13.90;7.60;;;;;;;15.40;100.00;97854.16;88175;285;136922;-78
2023/11/05 00:38:37;;;;;;;20.30;9.70;;;;;;;15.37;100.00;97848.98;88479;286;22635;-82
2023/11/05 00:40:39;;;;;;;19.80;12.00;;;;;;;15.35;100.00;97848.34;88174;283;137797;-71
2023/11/05 00:42:43;;;;;;;28.20;15.90;;;;;;;15.33;100.00;97846.43;88502;286;22543;-78
2023/11/05 00:44:45;;;;;;;23.80;12.60;;;;;;;15.32;100.00;97842.30;88221;278;136693;-70
2023/11/05 00:46:47;;;;;;;18.80;14.40;;;;;;;15.28;100.00;97841.27;88294;286;22530;-72
2023/11/05 00:48:48;;;;;;;18.10;12.50;;;;;;;15.28;100.00;97842.60;88301;285;137114;-80
2023/11/05 00:50:50;;;;;;;25.00;14.90;;;;;;;15.29;100.00;97837.86;88403;285;25734;-73
2023/11/05 00:52:52;;;;;;;19.90;11.10;;;;;;;15.23;100.00;97831.52;88141;282;136948;-72
2023/11/05 00:54:54;;;;;;;19.60;13.10;;;;;;;15.29;100.00;97837.33;88250;279;22546;-75
2023/11/05 00:56:56;;;;;;;23.80;10.10;;;;;;;15.27;100.00;97831.98;88233;278;138041;-79
2023/11/05 00:58:57;;;;;;;17.20;9.60;;;;;;;15.26;100.00;97826.10;88447;286;22567;-76
2023/11/05 01:01:00;;;;;;;19.00;11.20;;;;;;;15.22;100.00;97825.63;88279;285;136853;-75
2023/11/05 01:03:02;;;;;;;14.50;8.80;;;;;;;15.25;100.00;97826.85;88487;279;24061;-81
2023/11/05 01:05:04;;;;;;;20.50;10.40;;;;;;;15.23;100.00;97819.08;88297;280;136750;-74
2023/11/05 01:07:06;;;;;;;27.20;11.30;;;;;;;15.24;100.00;97811.72;89404;278;22522;-73
2023/11/05 01:09:08;;;;;;;21.30;9.40;;;;;;;15.24;100.00;97807.95;88753;285;136611;-76
2023/11/05 01:11:10;;;;;;;14.00;8.50;;;;;;;15.21;100.00;97820.86;88615;282;22544;-87
2023/11/05 01:13:13;;;;;;;14.30;7.50;;;;;;;15.21;100.00;97813.73;88427;282;136839;-75
2023/11/05 01:15:15;;;;;;;11.60;7.00;;;;;;;15.21;100.00;97806.32;88400;278;22530;-76
2023/11/05 01:17:18;;;;;;;13.10;5.50;;;;;;;15.16;100.00;97812.85;88340;278;138151;-78
2023/11/05 01:19:23;;;;;;;;;;;;;;;15.12;100.00;97807.83;88331;277;22518;-75
2023/11/05 01:21:27;;;;;;;10.70;4.70;;;;;;;15.08;100.00;97803.35;88211;286;124859;-80
2023/11/05 01:23:29;;;;;;;11.60;5.60;;;;;;;15.04;100.00;97811.22;88260;278;22523;-79
2023/11/05 01:25:31;;;;;;;10.10;5.40;;;;;;;15.01;100.00;97805.13;88240;278;137744;-77
2023/11/05 01:27:33;;;;;;;9.20;4.00;;;;;;;14.92;100.00;97805.40;88935;279;22534;-78
2023/11/05 01:29:35;;;;;;;12.10;4.30;;;;;;;14.87;100.00;97805.91;88217;277;137278;-76
2023/11/05 01:31:37;;;;;;;8.90;3.80;;;;;;;14.79;100.00;97797.96;88562;284;25143;-82
2023/11/05 01:33:40;;;;;;;7.50;3.30;;;;;;;14.69;100.00;97803.45;88313;284;136690;-75
2023/11/05 01:35:42;;;;;;;6.80;2.90;;;;;;;14.62;100.00;97794.42;88395;282;25087;-80
2023/11/05 01:37:44;;;;;;;6.00;3.30;;;;;;;14.57;100.00;97796.15;88319;282;136507;-73
2023/11/05 01:39:46;;;;;;;6.70;4.00;;;;;;;14.54;100.00;97796.59;88372;285;24111;-70
2023/11/05 01:41:49;;;;;;;11.00;3.50;;;;;;;14.51;100.00;97800.46;88299;285;136698;-74
2023/11/05 01:43:51;;;;;;;11.80;4.10;;;;;;;14.47;100.00;97817.20;88492;285;22526;-71
2023/11/05 01:45:53;;;;;;;8.30;3.20;;;;;;;14.45;100.00;97821.45;88276;285;136711;-74
2023/11/05 01:47:55;;;;;;;5.80;2.50;;;;;;;14.44;100.00;97856.23;88449;285;23005;-74
2023/11/05 01:50:02;;;;;;;1.40;0.40;;;;;;;14.43;100.00;97890.81;88512;285;138777;-73
2023/11/05 01:52:04;;;;;;;0.20;0.10;;;;;;;14.12;100.00;97918.54;88296;286;137747;-69
2023/11/05 01:54:08;;;;;;;0.10;0.00;;;;;;;13.50;100.00;97936.48;88237;286;26158;-68
2023/11/05 01:56:10;;;;;;;1.80;0.10;;;;;;;12.69;100.00;97944.25;88349;278;136743;-73
2023/11/05 01:58:12;;;;;;;0.60;0.10;;;;;;;12.22;100.00;97953.23;88341;278;22581;-71
2023/11/05 02:00:15;;;;;;;0.50;0.20;;;;;;;11.92;100.00;97967.17;88096;287;137024;-69
2023/11/05 02:02:18;;;;;;;0.70;0.20;;;;;;;11.69;100.00;97967.71;88062;279;24038;-69
2023/11/05 02:04:20;;;;;;;0.60;0.10;;;;;;;11.51;100.00;97968.40;88175;286;136631;-71
2023/11/05 02:06:26;;;;;;;0.10;0.00;;;;;;;11.35;100.00;97961.14;88183;285;26362;-71
2023/11/05 02:08:27;;;;;;;0.40;0.00;;;;;;;11.23;100.00;97945.77;88030;279;136609;-67
2023/11/05 02:10:29;;;;;;;0.10;0.00;;;;;;;11.13;100.00;97936.17;88403;276;25209;-70
2023/11/05 02:12:31;;;;;;;0.00;0.00;;;;;;;11.05;100.00;97939.66;88254;276;136803;-72
2023/11/05 02:14:33;;;;;;;0.00;0.00;;;;;;;10.92;100.00;97929.92;88273;283;25163;-66
2023/11/05 02:16:35;;;;;;;0.00;0.00;;;;;;;10.92;100.00;97936.73;88172;279;136516;-68
2023/11/05 02:18:39;;;;;;;0.00;0.00;;;;;;;10.86;100.00;97956.45;88269;286;23942;-67
2023/11/05 02:20:40;;;;;;;0.20;0.00;;;;;;;10.81;100.00;97977.50;88193;286;137944;-70
2023/11/05 02:22:46;;;;;;;0.20;0.00;;;;;;;10.77;100.00;97989.01;88217;283;26160;-71
2023/11/05 02:24:48;;;;;;;0.30;0.00;;;;;;;10.74;100.00;98002.59;88069;282;136816;-74
2023/11/05 02:26:57;;;;;;;0.30;0.00;;;;;;;10.70;100.00;98015.45;88348;285;24187;-67
2023/11/05 02:28:59;;;;;;;0.00;0.00;;;;;;;10.68;100.00;98024.23;88167;286;136523;-71
2023/11/05 02:31:01;;;;;;;0.00;0.00;;;;;;;10.65;100.00;98025.15;88524;286;22535;-74
2023/11/05 02:33:05;;;;;;;0.00;0.00;;;;;;;10.63;100.00;98026.92;88237;285;136857;-72
2023/11/05 02:35:07;;;;;;;0.00;0.00;;;;;;;10.60;100.00;98027.73;88392;278;25070;-71
2023/11/05 02:37:10;;;;;;;0.00;0.00;;;;;;;10.51;100.00;98014.02;88203;282;137035;-71
2023/11/05 02:39:13;;;;;;;0.00;0.00;;;;;;;10.58;100.00;98025.94;88520;281;22599;-69
2023/11/05 02:41:15;;;;;;;0.00;0.00;;;;;;;10.56;100.00;98030.98;88443;278;136848;-72
2023/11/05 02:43:17;;;;;;;0.00;0.00;;;;;;;10.53;100.00;98040.36;88477;278;25207;-71
2023/11/05 02:45:20;;;;;;;0.00;0.00;;;;;;;10.50;100.00;98045.17;88186;283;137422;-68
2023/11/05 02:47:21;;;;;;;0.70;0.00;;;;;;;10.50;100.00;98050.65;88370;275;22642;-71
2023/11/05 02:49:23;;;;;;;0.30;0.00;;;;;;;10.51;100.00;98055.85;88446;282;136659;-70
2023/11/05 02:51:25;;;;;;;1.00;0.00;;;;;;;10.51;100.00;98061.75;88521;274;25360;-71
2023/11/05 02:53:27;;;;;;;0.00;0.00;;;;;;;10.49;100.00;98075.83;88368;282;137446;-71
2023/11/05 02:55:29;;;;;;;0.00;0.00;;;;;;;10.48;100.00;98087.87;88432;279;25226;-70
2023/11/05 02:57:31;;;;;;;0.00;0.00;;;;;;;10.49;100.00;98103.80;88397;281;136864;-69
2023/11/05 02:59:33;;;;;;;0.10;0.00;;;;;;;10.48;100.00;98111.09;88568;281;25242;-72
2023/11/05 03:01:37;;;;;;;0.00;0.00;;;;;;;10.47;100.00;98123.38;88493;281;136915;-74
2023/11/05 03:03:39;;;;;;;1.60;0.00;;;;;;;10.47;100.00;98134.45;88362;283;22531;-74
2023/11/05 03:05:43;;;;;;;0.00;0.00;;;;;;;10.45;100.00;98145.13;88400;278;137014;-72
2023/11/05 03:07:44;;;;;;;0.10;0.00;;;;;;;10.42;100.00;98145.14;88513;281;22527;-72
2023/11/05 03:09:46;;;;;;;0.40;0.10;;;;;;;10.41;100.00;98147.88;88395;281;138310;-73
2023/11/05 03:11:53;;;;;;;1.00;0.10;;;;;;;10.42;100.00;98150.19;88534;274;22536;-76
2023/11/05 03:13:55;;;;;;;0.50;0.10;;;;;;;10.45;100.00;98152.05;88394;282;137306;-71
2023/11/05 03:15:57;;;;;;;0.90;0.10;;;;;;;10.45;100.00;98158.88;88509;274;22542;-69
2023/11/05 03:17:59;;;;;;;0.60;0.20;;;;;;;10.45;100.00;98166.43;88412;281;136883;-75
2023/11/05 03:20:01;;;;;;;0.10;0.10;;;;;;;10.44;100.00;98173.34;88573;282;24152;-72
2023/11/05 03:22:02;;;;;;;0.10;0.10;;;;;;;10.43;100.00;98181.53;88490;274;22634;-73
2023/11/05 03:24:05;;;;;;;0.10;0.10;;;;;;;10.44;100.00;98195.64;88968;274;136969;-71
2023/11/05 03:26:06;;;;;;;1.00;0.10;;;;;;;10.44;100.00;98218.77;90278;276;23776;-71
2023/11/05 03:28:08;;;;;;;0.70;0.00;;;;;;;10.43;100.00;98231.54;90255;281;137829;-70
2023/11/05 03:30:11;;;;;;;0.10;0.10;;;;;;;10.43;100.00;98244.39;90338;274;22565;-66
2023/11/05 03:32:14;;;;;;;0.10;0.10;;;;;;;10.43;100.00;98248.95;89873;281;137122;-72
2023/11/05 03:34:18;;;;;;;0.20;0.20;;;;;;;10.41;100.00;98266.23;90101;278;22866;-71
2023/11/05 03:36:22;;;;;;;1.50;0.20;;;;;;;10.40;100.00;98271.98;89943;282;136901;-69
2023/11/05 03:38:24;;;;;;;1.70;0.10;;;;;;;10.38;100.00;98276.95;90130;282;22729;-66
2023/11/05 03:40:26;;;;;;;0.20;0.20;;;;;;;10.38;100.00;98280.45;88825;275;136992;-71
2023/11/05 03:42:28;;;;;;;0.10;0.10;;;;;;;10.37;100.00;98284.33;88455;278;25216;-70
2023/11/05 03:44:29;;;;;;;0.40;0.10;;;;;;;10.35;100.00;98289.88;88303;275;136885;-75
2023/11/05 03:46:31;;;;;;;0.10;0.10;;;;;;;10.33;100.00;98293.52;88551;278;24055;-72
2023/11/05 03:48:33;;;;;;;0.10;0.10;;;;;;;10.30;100.00;98302.98;88650;281;137277;-76
2023/11/05 03:50:36;;;;;;;0.10;0.10;;;;;;;10.30;100.00;98313.55;88494;278;22527;-73
2023/11/05 03:52:38;;;;;;;0.50;0.10;;;;;;;10.29;100.00;98318.65;88444;275;136347;-72
2023/11/05 03:54:40;;;;;;;0.40;0.10;;;;;;;10.27;100.00;98322.82;88621;274;24190;-75
2023/11/05 03:56:43;;;;;;;0.10;0.10;;;;;;;10.16;100.00;98313.61;88421;275;136876;-72
2023/11/05 03:58:46;;;;;;;2.80;1.40;;;;;;;10.22;100.00;98330.55;88436;279;22496;-70
2023/11/05 04:00:47;;;;;;;0.30;0.10;;;;;;;10.21;100.00;98337.36;88235;274;136769;-68
2023/11/05 04:02:49;;;;;;;0.20;0.10;;;;;;;10.20;100.00;98333.00;88483;278;22524;-75
2023/11/05 04:04:53;;;;;;;0.80;0.10;;;;;;;10.19;100.00;98334.70;88418;282;136987;-72
2023/11/05 04:06:56;;;;;;;0.20;0.00;;;;;;;10.18;100.00;98345.42;88561;275;24456;-67
2023/11/05 04:08:58;;;;;;;0.80;0.00;;;;;;;10.14;100.00;98346.30;88196;280;137226;-69
2023/11/05 04:11:00;;;;;;;0.10;0.10;;;;;;;10.12;100.00;98353.83;88438;275;24055;-70
2023/11/05 04:13:02;;;;;;;0.30;0.30;;;;;;;10.11;100.00;98355.82;88401;282;136853;-74
2023/11/05 04:15:06;;;;;;;1.00;0.10;;;;;;;10.09;100.00;98354.70;88504;274;24243;-69
2023/11/05 04:17:08;;;;;;;0.10;0.10;;;;;;;10.08;100.00;98364.08;88499;282;136968;-73
2023/11/05 04:19:12;;;;;;;0.30;0.20;;;;;;;10.08;100.00;98376.73;88477;282;22537;-74
2023/11/05 04:21:18;;;;;;;0.30;0.20;;;;;;;10.06;100.00;98386.34;88458;277;138391;-77
2023/11/05 04:23:20;;;;;;;0.10;0.10;;;;;;;10.06;100.00;98385.37;88585;273;22534;-79
2023/11/05 04:25:22;;;;;;;0.50;0.40;;;;;;;10.04;100.00;98386.49;88247;275;137092;-75
2023/11/05 04:27:24;;;;;;;0.60;0.20;;;;;;;10.05;100.00;98393.33;88519;278;23713;-76
2023/11/05 04:29:25;;;;;;;0.20;0.20;;;;;;;10.06;100.00;98404.65;88452;273;138217;-74
2023/11/05 04:31:27;;;;;;;0.20;0.20;;;;;;;10.08;100.00;98423.05;88652;279;24338;-79
2023/11/05 04:33:32;;;;;;;2.90;0.20;;;;;;;10.08;100.00;98437.70;88435;274;138584;-78
2023/11/05 04:35:34;;;;;;;0.10;0.10;;;;;;;10.07;100.00;98442.51;89090;278;22526;-74
2023/11/05 04:37:37;;;;;;;0.30;0.20;;;;;;;10.06;100.00;98440.11;88997;281;136994;-80
2023/11/05 04:39:42;;;;;;;0.20;0.10;;;;;;;10.05;100.00;98433.52;88868;282;24052;-78
2023/11/05 04:41:44;;;;;;;0.30;0.20;;;;;;;10.05;100.00;98430.60;88423;282;136965;-75
2023/11/05 04:43:46;;;;;;;1.40;0.90;;;;;;;10.05;100.00;98433.73;88592;282;26161;-81
2023/11/05 04:45:50;;;;;;;0.80;0.70;;;;;;;10.05;100.00;98441.94;88479;274;136942;-73
2023/11/05 04:47:51;;;;;;;2.20;2.00;;;;;;;10.04;100.00;98447.67;88599;278;22544;-72
2023/11/05 04:49:53;;;;;;;3.70;2.90;;;;;;;10.04;100.00;98450.63;88299;279;136683;-66
2023/11/05 04:51:55;;;;;;;2.20;2.10;;;;;;;10.03;100.00;98457.44;88412;275;22524;-78
2023/11/05 04:53:57;;;;;;;2.50;2.30;;;;;;;10.03;100.00;98459.73;88519;273;137593;-82
2023/11/05 04:55:59;;;;;;;1.70;1.60;;;;;;;10.04;100.00;98457.02;88511;273;22592;-76
2023/11/05 04:58:01;;;;;;;1.10;1.00;;;;;;;10.05;100.00;98462.70;88380;282;136984;-76
2023/11/05 05:00:04;;;;;;;0.40;0.40;;;;;;;10.06;100.00;98471.23;88538;275;24018;-82
2023/11/05 05:02:07;;;;;;;0.30;0.30;;;;;;;10.07;100.00;98471.30;88384;275;22893;-79
2023/11/05 05:04:10;;;;;;;0.50;0.20;;;;;;;10.08;100.00;98469.58;88344;275;138553;-78
2023/11/05 05:06:12;;;;;;;0.20;0.20;;;;;;;10.09;100.00;98478.76;88475;274;22531;-81
2023/11/05 05:08:16;;;;;;;1.10;1.10;;;;;;;10.11;100.00;98482.70;88362;278;137339;-68
2023/11/05 05:10:18;;;;;;;5.50;5.00;;;;;;;10.12;100.00;98485.22;88420;273;24238;-77
2023/11/05 05:12:21;;;;;;;7.00;5.80;;;;;;;10.13;100.00;98491.46;88411;278;137434;-74
2023/11/05 05:14:23;;;;;;;2.10;2.00;;;;;;;10.13;100.00;98498.77;88360;275;23717;-79
2023/11/05 05:16:28;;;;;;;0.60;0.40;;;;;;;10.12;100.00;98508.13;88683;275;138167;-79
2023/11/05 05:18:30;;;;;;;;;;;;;;;10.09;100.00;98513.00;89050;274;24826;-76
2023/11/05 05:20:32;;;;;;;0.10;0.10;;;;;;;10.07;100.00;98515.13;88943;274;123066;-77
2023/11/05 05:22:34;;;;;;;0.20;0.10;;;;;;;10.03;100.00;98519.35;89320;281;25206;-81
2023/11/05 05:24:36;;;;;;;0.70;0.40;;;;;;;10.02;100.00;98529.29;88391;279;136622;-77
2023/11/05 05:26:38;;;;;;;2.10;2.00;;;;;;;10.01;100.00;98530.00;88312;278;24014;-81
2023/11/05 05:28:40;;;;;;;1.30;1.00;;;;;;;10.01;100.00;98537.13;88535;274;137270;-76
2023/11/05 05:30:42;;;;;;;2.10;0.50;;;;;;;10.03;100.00;98544.45;88569;274;22545;-76
2023/11/05 05:32:44;;;;;;;0.60;0.30;;;;;;;10.03;100.00;98551.66;88278;274;137015;-74
2023/11/05 05:34:47;;;;;;;0.90;0.10;;;;;;;9.96;100.00;98543.21;88432;274;24661;-75
2023/11/05 05:36:49;;;;;;;0.20;0.10;;;;;;;10.03;100.00;98558.48;88432;274;136558;-73
2023/11/05 05:38:52;;;;;;;0.20;0.10;;;;;;;10.02;100.00;98558.61;88379;274;24052;-74
2023/11/05 05:40:53;;;;;;;0.10;0.00;;;;;;;10.02;100.00;98563.40;88271;274;137883;-73
2023/11/05 05:42:55;;;;;;;0.10;0.10;;;;;;;10.01;100.00;98562.10;88385;274;22549;-73
2023/11/05 05:44:57;;;;;;;0.10;0.10;;;;;;;10.02;100.00;98562.70;88317;280;136850;-72
2023/11/05 05:47:00;;;;;;;0.00;0.00;;;;;;;10.04;100.00;98563.24;88288;275;24173;-75
2023/11/05 05:49:04;;;;;;;1.00;1.00;;;;;;;10.05;100.00;98568.80;88347;275;137054;-77
2023/11/05 05:51:12;;;;;;;2.30;1.70;;;;;;;10.05;100.00;98573.67;88396;274;22530;-74
2023/11/05 05:53:14;;;;;;;1.40;1.00;;;;;;;10.03;100.00;98578.27;88377;274;137018;-72
2023/11/05 05:55:16;;;;;;;0.50;0.40;;;;;;;10.04;100.00;98575.85;88549;278;27351;-75
2023/11/05 05:57:18;;;;;;;0.30;0.20;;;;;;;10.03;100.00;98573.58;88273;279;137140;-77
2023/11/05 05:59:20;;;;;;;0.20;0.10;;;;;;;10.02;100.00;98581.01;88892;274;22467;-77
2023/11/05 06:01:22;;;;;;;0.40;0.20;;;;;;;10.01;100.00;98581.64;88889;275;137083;-74
2023/11/05 06:03:23;;;;;;;1.50;0.10;;;;;;;10.00;100.00;98575.17;88593;274;25213;-77
2023/11/05 06:05:25;;;;;;;0.20;0.10;;;;;;;10.02;100.00;98582.15;88331;278;136888;-79
2023/11/05 06:07:31;;;;;;;0.40;0.20;;;;;;;10.03;100.00;98585.25;88362;274;27250;-79
2023/11/05 06:09:33;;;;;;;1.40;0.40;;;;;;;10.03;100.00;98593.40;88302;278;136979;-76
2023/11/05 06:11:35;;;;;;;0.30;0.20;;;;;;;10.02;100.00;98600.67;88442;274;22580;-74
2023/11/05 06:13:37;;;;;;;0.20;0.10;;;;;;;9.93;100.00;98595.27;88310;275;137115;-79
2023/11/05 06:15:40;;;;;;;0.10;0.10;;;;;;;10.02;100.00;98612.02;88593;273;22533;-77
2023/11/05 06:17:42;;;;;;;1.20;0.20;;;;;;;10.04;100.00;98617.70;88461;281;137111;-82
2023/11/05 06:19:44;;;;;;;0.60;0.10;;;;;;;10.07;100.00;98624.71;88422;273;22604;-79
2023/11/05 06:21:48;;;;;;;2.70;1.10;;;;;;;10.09;100.00;98623.16;88495;274;136857;-84
2023/11/05 06:23:50;;;;;;;3.10;2.80;;;;;;;10.11;100.00;98623.14;88361;278;22538;-79
2023/11/05 06:25:52;;;;;;;4.20;3.40;;;;;;;10.11;100.00;98631.50;88302;274;137238;-81
2023/11/05 06:27:53;;;;;;;2.60;1.50;;;;;;;10.12;100.00;98641.92;88440;282;22536;-78
2023/11/05 06:30:00;;;;;;;1.40;1.00;;;;;;;10.12;100.00;98652.98;88524;279;137684;-79
2023/11/05 06:32:04;;;;;;;1.10;0.50;;;;;;;10.11;100.00;98648.48;88303;281;137272;-68
2023/11/05 06:34:05;;;;;;;0.80;0.30;;;;;;;10.09;100.00;98642.79;88744;281;22882;-74
2023/11/05 06:36:08;;;;;;;0.80;0.20;;;;;;;10.21;100.00;98654.50;88217;273;137259;-65
2023/11/05 06:38:10;;;;;;;0.90;0.50;;;;;;;10.30;100.00;98663.35;88308;281;22997;-72
2023/11/05 06:40:12;;;;;;;2.10;0.30;;;;;;;10.33;100.00;98658.73;88281;281;137203;-72
2023/11/05 06:42:14;;;;;;;0.50;0.40;;;;;;;10.47;100.00;98676.88;88360;282;25223;-71
2023/11/05 06:44:15;;;;;;;0.80;0.20;;;;;;;10.55;100.00;98676.97;88262;282;137262;-72
2023/11/05 06:46:17;;;;;;;0.50;0.20;;;;;;;10.65;100.00;98685.20;88253;283;22548;-69
2023/11/05 06:48:19;;;;;;;1.10;0.20;;;;;;;10.74;100.00;98685.52;88263;274;137183;-72
2023/11/05 06:50:21;;;;;;;0.60;0.20;;;;;;;10.81;100.00;98689.85;88405;274;22610;-71
2023/11/05 06:52:26;;;;;;;0.40;0.20;;;;;;;10.87;100.00;98693.02;88442;274;138585;-71
2023/11/05 06:54:28;;;;;;;1.00;0.10;;;;;;;10.95;100.00;98701.14;88314;282;25213;-69
2023/11/05 06:56:30;;;;;;;0.50;0.20;;;;;;;11.03;100.00;98707.60;88157;278;136971;-71
2023/11/05 06:58:32;;;;;;;0.50;0.20;;;;;;;11.12;100.00;98714.02;88229;274;22827;-71
2023/11/05 07:00:36;;;;;;;0.60;0.20;;;;;;;11.18;100.00;98711.94;88157;278;138564;-70
2023/11/05 07:02:38;;;;;;;0.40;0.10;;;;;;;11.24;100.00;98723.86;88418;275;22534;-72
2023/11/05 07:04:40;;;;;;;0.60;0.20;;;;;;;11.23;100.00;98731.55;88214;274;138144;-71
2023/11/05 07:06:42;;;;;;;0.60;0.10;;;;;;;11.20;100.00;98730.20;88453;282;23009;-73
2023/11/05 07:08:44;;;;;;;0.30;0.10;;;;;;;11.21;100.00;98730.45;88188;275;137843;-72
2023/11/05 07:10:46;;;;;;;0.40;0.20;;;;;;;11.24;100.00;98736.05;88328;278;25252;-71
2023/11/05 07:12:48;;;;;;;0.50;0.10;;;;;;;11.27;100.00;98722.91;88240;274;137190;-71
2023/11/05 07:14:50;;;;;;;0.30;0.10;;;;;;;11.31;100.00;98724.59;88489;275;25124;-71
2023/11/05 07:16:52;;;;;;;0.80;0.10;;;;;;;11.34;100.00;98726.48;88245;273;136939;-69
2023/11/05 07:18:54;;;;;;;0.40;0.10;;;;;;;11.39;100.00;98735.81;88335;275;25312;-73
2023/11/05 07:20:57;;;;;;;0.30;0.20;;;;;;;11.43;100.00;98737.72;88174;274;138343;-71
2023/11/05 07:22:59;;;;;;;0.50;0.10;;;;;;;11.47;100.00;98743.19;88299;274;22530;-71
2023/11/05 07:25:05;;;;;;;0.10;0.10;;;;;;;11.49;100.00;98732.84;88189;273;137000;-71
2023/11/05 07:27:07;;;;;;;0.20;0.10;;;;;;;11.53;100.00;98732.59;88423;274;25093;-73
2023/11/05 07:29:10;;;;;;;1.80;0.10;;;;;;;11.57;100.00;98731.52;88183;275;138674;-72
2023/11/05 07:31:16;;;;;;;0.30;0.10;;;;;;;11.63;100.00;98735.05;88383;275;24015;-76
2023/11/05 07:33:18;;;;;;;0.40;0.10;;;;;;;11.69;100.00;98733.54;87729;278;618266;-76
2023/11/05 07:35:20;;;;;;;0.70;0.10;;;;;;;11.72;100.00;98725.05;88326;275;25168;-77
2023/11/05 07:37:22;;;;;;;0.40;0.20;;;;;;;11.78;100.00;98730.46;88201;275;138244;-73
2023/11/05 07:39:24;;;;;;;0.90;0.20;;;;;;;11.84;100.00;98733.63;88431;274;22533;-73
2023/11/05 07:41:26;;;;;;;0.50;0.10;;;;;;;11.90;100.00;98734.73;88509;274;137973;-72
2023/11/05 07:43:27;;;;;;;0.70;0.10;;;;;;;11.92;100.00;98733.02;88183;275;22920;-69
2023/11/05 07:45:29;;;;;;;3.20;0.10;;;;;;;11.93;100.00;98728.64;88230;278;137095;-71
2023/11/05 07:47:31;;;;;;;0.40;0.10;;;;;;;11.91;100.00;98724.18;88332;279;22483;-71
2023/11/05 07:49:33;;;;;;;0.30;0.10;;;;;;;11.92;100.00;98724.19;88222;274;136978;-75
2023/11/05 07:51:37;;;;;;;0.90;0.10;;;;;;;11.90;100.00;98716.56;88365;278;26161;-73
2023/11/05 07:53:38;;;;;;;0.30;0.10;;;;;;;11.93;100.00;98715.30;88426;274;137256;-71
2023/11/05 07:55:40;;;;;;;0.30;0.10;;;;;;;11.98;100.00;98714.23;88359;278;22688;-74
2023/11/05 07:57:43;;;;;;;0.40;0.10;;;;;;;12.05;100.00;98711.91;88269;274;136923;-72
2023/11/05 07:59:45;;;;;;;1.50;0.70;;;;;;;12.15;100.00;98713.22;88302;274;23156;-72
2023/11/05 08:01:47;;;;;;;0.30;0.10;;;;;;;12.28;100.00;98719.98;88302;278;138489;-71
2023/11/05 08:03:49;;;;;;;3.10;0.20;;;;;;;12.40;100.00;98724.58;88353;274;25138;-71
2023/11/05 08:05:53;;;;;;;0.10;0.10;;;;;;;12.50;100.00;98725.20;88252;274;136979;-71
2023/11/05 08:07:55;;;;;;;0.40;0.10;;;;;;;12.60;100.00;98735.84;88265;274;22819;-70
2023/11/05 08:09:57;;;;;;;1.70;0.10;;;;;;;12.65;100.00;98742.23;88218;275;140774;-75
2023/11/05 08:11:59;;;;;;;0.50;0.30;;;;;;;12.70;100.00;98745.73;88464;275;22999;-75
2023/11/05 08:14:00;;;;;;;0.40;0.10;;;;;;;12.73;100.00;98746.27;88285;282;136957;-73
2023/11/05 08:16:03;;;;;;;0.40;0.10;;;;;;;12.77;100.00;98748.91;88381;274;22599;-71
2023/11/05 08:18:05;;;;;;;1.00;0.10;;;;;;;12.79;100.00;98753.33;88549;273;25080;-71
2023/11/05 08:20:11;;;;;;;0.70;0.10;;;;;;;12.80;100.00;98748.87;88457;273;138525;-71
2023/11/05 08:22:13;;;;;;;0.60;0.10;;;;;;;12.84;100.00;98754.70;88525;282;24128;-70
2023/11/05 08:24:15;;;;;;;0.30;0.10;;;;;;;12.89;100.00;98753.27;88282;274;138928;-72
2023/11/05 08:26:17;;;;;;;0.20;0.10;;;;;;;12.93;100.00;98751.42;88339;275;25216;-70
2023/11/05 08:28:20;;;;;;;0.60;0.10;;;;;;;12.95;100.00;98750.60;88272;282;138626;-71
2023/11/05 08:30:27;;;;;;;0.50;0.20;;;;;;;12.97;100.00;98746.95;88377;276;22998;-72
2023/11/05 08:32:29;;;;;;;0.60;0.10;;;;;;;13.00;100.00;98741.21;88042;275;136818;-75
2023/11/05 08:34:31;;;;;;;0.20;0.10;;;;;;;13.03;100.00;98735.64;88237;279;22537;-74
2023/11/05 08:36:35;;;;;;;0.80;0.10;;;;;;;13.02;100.00;98730.76;88320;275;136964;-73
2023/11/05 08:38:37;;;;;;;0.20;0.10;;;;;;;12.98;100.00;98727.75;88595;275;24622;-79
2023/11/05 08:40:41;;;;;;;0.60;0.20;;;;;;;12.93;100.00;98727.73;88631;282;137075;-72
2023/11/05 08:42:43;;;;;;;0.60;0.10;;;;;;;12.93;100.00;98725.44;88208;283;22537;-72
2023/11/05 08:44:45;;;;;;;2.20;0.10;;;;;;;12.94;100.00;98726.07;88405;282;137948;-68
2023/11/05 08:46:48;;;;;;;0.70;0.10;;;;;;;12.92;100.00;98731.63;88411;278;22534;-69
2023/11/05 08:48:50;;;;;;;0.80;0.10;;;;;;;12.93;100.00;98734.58;88377;282;137044;-71
2023/11/05 08:50:52;;;;;;;0.40;0.10;;;;;;;12.95;100.00;98736.16;88396;275;23868;-72
2023/11/05 08:52:53;;;;;;;0.80;0.20;;;;;;;13.00;100.00;98739.86;88291;274;137905;-75
2023/11/05 08:54:59;;;;;;;0.80;0.10;;;;;;;13.04;100.00;98744.00;88247;274;24020;-71
2023/11/05 08:57:01;;;;;;;1.30;0.20;;;;;;;13.09;100.00;98744.84;88031;283;137099;-70
2023/11/05 08:59:04;;;;;;;2.40;0.20;;;;;;;13.13;100.00;98732.95;88354;274;25007;-72
2023/11/05 09:01:07;;;;;;;0.30;0.10;;;;;;;13.16;100.00;98733.17;88161;279;137975;-71
2023/11/05 09:03:11;;;;;;;1.20;0.50;;;;;;;13.15;100.00;98742.20;88369;274;22578;-73
2023/11/05 09:05:13;;;;;;;0.20;0.10;;;;;;;13.13;100.00;98747.23;88237;279;137851;-71
2023/11/05 09:07:15;;;;;;;0.90;0.20;;;;;;;13.16;100.00;98737.39;88339;275;25144;-73
2023/11/05 09:09:17;;;;;;;2.70;0.20;;;;;;;13.19;100.00;98735.08;88387;277;137200;-78
2023/11/05 09:11:20;;;;;;;0.40;0.10;;;;;;;13.21;100.00;98740.73;88288;273;24151;-71
2023/11/05 09:13:21;;;;;;;0.50;0.20;;;;;;;13.27;100.00;98751.42;88303;273;137050;-75
2023/11/05 09:15:26;;;;;;;0.50;0.20;;;;;;;13.33;100.00;98752.71;88465;273;24058;-73
2023/11/05 09:17:28;;;;;;;0.70;0.10;;;;;;;13.39;100.00;98753.77;88387;277;137007;-73
2023/11/05 09:19:32;;;;;;;0.70;0.20;;;;;;;13.46;100.00;98757.52;88345;273;22638;-72
2023/11/05 09:21:35;;;;;;;0.50;0.30;;;;;;;13.51;100.00;98758.55;88263;277;138364;-69
2023/11/05 09:23:37;;;;;;;0.60;0.20;;;;;;;13.51;100.00;98758.11;88482;273;26165;-70
2023/11/05 09:25:38;;;;;;;5.60;0.20;;;;;;;13.46;100.00;98758.05;88279;273;136831;-77
2023/11/05 09:27:41;;;;;;;0.30;0.20;;;;;;;13.40;100.00;98755.23;88579;273;22620;-72
2023/11/05 09:29:43;;;;;;;0.90;0.50;;;;;;;13.34;100.00;98753.05;88308;282;138408;-74
2023/11/05 09:31:47;;;;;;;1.10;0.20;;;;;;;13.27;100.00;98749.70;88392;273;24054;-75
2023/11/05 09:33:49;;;;;;;1.90;0.30;;;;;;;13.27;100.00;98746.39;88414;281;137007;-79